createdAt,value
2023-04-22T00:02:07.610Z,6.96
2023-04-22T00:07:15.273Z,6.91
2023-04-22T00:12:22.667Z,6.85
2023-04-22T00:17:29.794Z,6.79
2023-04-22T00:22:36.925Z,6.73
2023-04-22T00:27:45.286Z,6.65
2023-04-22T00:32:52.661Z,6.58
2023-04-22T00:37:59.738Z,6.54
2023-04-22T00:43:07.494Z,6.50
2023-04-22T00:48:15.810Z,6.42
2023-04-22T00:53:22.814Z,6.36
2023-04-22T00:58:31.204Z,6.28
2023-04-22T01:03:40.061Z,6.19
2023-04-22T01:08:47.454Z,6.09
2023-04-22T01:13:55.106Z,6.06
2023-04-22T01:19:02.244Z,6.05
2023-04-22T01:24:10.373Z,5.96
2023-04-22T01:29:18.733Z,5.86
2023-04-22T01:34:25.868Z,5.80
2023-04-22T01:39:33.381Z,5.65
2023-04-22T01:44:40.829Z,5.54
2023-04-22T01:49:48.040Z,5.43
2023-04-22T01:54:55.683Z,5.31
2023-04-22T02:00:03.074Z,5.21
2023-04-22T02:05:20.976Z,5.09
2023-04-22T02:10:27.950Z,4.96
2023-04-22T02:15:35.107Z,4.87
2023-04-22T02:20:42.298Z,4.78
2023-04-22T02:25:52.753Z,4.69
2023-04-22T02:30:59.715Z,4.59
2023-04-22T02:36:07.289Z,4.50
2023-04-22T02:41:14.344Z,4.41
2023-04-22T02:46:22.200Z,4.33
2023-04-22T02:51:29.809Z,4.25
2023-04-22T02:56:37.099Z,4.18
2023-04-22T03:01:44.250Z,4.15
2023-04-22T03:06:56.177Z,4.04
2023-04-22T03:12:03.564Z,4.00
2023-04-22T03:17:11.209Z,3.94
2023-04-22T03:22:18.867Z,3.88
2023-04-22T03:27:26.536Z,3.83
2023-04-22T03:32:33.889Z,3.84
2023-04-22T03:37:56.944Z,3.80
2023-04-22T03:43:08.671Z,3.71
2023-04-22T03:48:19.235Z,3.65
2023-04-22T03:53:29.338Z,3.61
2023-04-22T03:58:37.126Z,3.57
2023-04-22T04:03:46.767Z,3.55
2023-04-22T04:08:56.552Z,3.58
2023-04-22T04:14:04.205Z,3.66
2023-04-22T04:19:27.146Z,3.70
2023-04-22T04:24:36.827Z,3.73
2023-04-22T04:29:50.094Z,3.77
2023-04-22T04:35:04.872Z,3.87
2023-04-22T04:40:13.999Z,4.00
2023-04-22T04:45:28.987Z,4.11
2023-04-22T04:50:36.672Z,4.26
2023-04-22T04:55:44.110Z,4.42
2023-04-22T05:01:00.344Z,4.62
2023-04-22T05:06:10.725Z,4.79
2023-04-22T05:11:18.492Z,5.01
2023-04-22T05:16:27.790Z,5.29
2023-04-22T05:21:36.738Z,5.50
2023-04-22T05:26:44.251Z,5.75
2023-04-22T05:31:57.458Z,5.98
2023-04-22T05:37:05.580Z,6.28
2023-04-22T05:42:13.925Z,6.57
2023-04-22T05:47:21.710Z,6.88
2023-04-22T05:52:29.382Z,7.20
2023-04-22T05:57:43.404Z,7.58
2023-04-22T06:03:06.294Z,7.99
2023-04-22T06:08:13.784Z,8.31
2023-04-22T06:13:20.856Z,8.55
2023-04-22T06:18:28.473Z,8.80
2023-04-22T06:23:36.014Z,9.11
2023-04-22T06:28:42.994Z,9.38
2023-04-22T06:33:52.907Z,9.70
2023-04-22T06:39:00.113Z,10.01
2023-04-22T06:44:26.524Z,10.30
2023-04-22T06:49:51.903Z,10.56
2023-04-22T06:55:03.356Z,10.92
2023-04-22T07:00:13.921Z,11.17
2023-04-22T07:05:21.622Z,11.37
2023-04-22T07:10:29.002Z,11.49
2023-04-22T07:15:56.138Z,11.65
2023-04-22T07:21:03.065Z,11.83
2023-04-22T07:26:10.172Z,12.02
2023-04-22T07:31:17.361Z,12.25
2023-04-22T07:36:24.384Z,12.45
2023-04-22T07:41:31.925Z,12.73
2023-04-22T07:46:38.948Z,12.94
2023-04-22T07:51:46.187Z,13.19
2023-04-22T07:56:53.120Z,13.45
2023-04-22T08:02:00.084Z,13.61
2023-04-22T08:07:26.817Z,13.83
2023-04-22T08:12:34.177Z,14.04
2023-04-22T08:17:41.215Z,14.22
2023-04-22T08:22:48.765Z,14.55
2023-04-22T08:27:55.889Z,14.84
2023-04-22T08:33:02.881Z,15.06
2023-04-22T08:38:10.052Z,15.27
2023-04-22T08:43:17.673Z,15.48
2023-04-22T08:48:24.934Z,15.61
2023-04-22T08:53:32.011Z,15.83
2023-04-22T08:58:40.260Z,16.04
2023-04-22T09:03:50.200Z,16.18
2023-04-22T09:08:59.120Z,16.35
2023-04-22T09:14:06.791Z,16.53
2023-04-22T09:19:15.992Z,16.75
2023-04-22T09:24:23.359Z,16.93
2023-04-22T09:29:33.544Z,17.14
2023-04-22T09:34:50.999Z,17.38
2023-04-22T09:39:57.980Z,17.65
2023-04-22T09:45:05.523Z,17.85
2023-04-22T09:50:14.136Z,18.02
2023-04-22T09:55:22.546Z,18.25
2023-04-22T10:00:32.163Z,18.41
2023-04-22T10:05:39.292Z,18.50
2023-04-22T10:10:46.900Z,18.70
2023-04-22T10:15:56.550Z,18.88
2023-04-22T10:21:03.946Z,18.99
2023-04-22T10:26:11.044Z,19.11
2023-04-22T10:31:24.608Z,19.29
2023-04-22T10:36:33.373Z,19.46
2023-04-22T10:41:41.146Z,19.60
2023-04-22T10:47:03.682Z,19.73
2023-04-22T10:52:30.409Z,19.80
2023-04-22T10:57:41.644Z,19.82
2023-04-22T11:02:53.210Z,19.94
2023-04-22T11:08:06.728Z,20.06
2023-04-22T11:13:15.634Z,20.23
2023-04-22T11:18:24.276Z,20.41
2023-04-22T11:23:31.484Z,20.56
2023-04-22T11:28:46.392Z,20.68
2023-04-22T11:33:53.591Z,20.87
2023-04-22T11:39:00.577Z,21.02
2023-04-22T11:44:07.558Z,21.06
2023-04-22T11:49:19.806Z,21.10
2023-04-22T11:54:37.302Z,21.37
2023-04-22T11:59:44.557Z,22.16
2023-04-22T12:04:51.426Z,23.23
2023-04-22T12:09:59.891Z,23.77
2023-04-22T12:15:16.173Z,24.36
2023-04-22T12:20:24.759Z,24.78
2023-04-22T12:25:33.911Z,24.99
2023-04-22T12:30:40.816Z,25.84
2023-04-22T12:35:50.745Z,26.72
2023-04-22T12:40:57.791Z,27.08
2023-04-22T12:46:05.465Z,27.20
2023-04-22T12:51:12.459Z,27.60
2023-04-22T12:56:19.527Z,27.66
2023-04-22T13:01:26.382Z,27.68
2023-04-22T13:06:33.535Z,28.14
2023-04-22T13:11:40.549Z,28.34
2023-04-22T13:16:47.404Z,28.39
2023-04-22T13:21:54.926Z,28.42
2023-04-22T13:27:02.815Z,29.23
2023-04-22T13:32:10.584Z,30.00
2023-04-22T13:37:19.403Z,29.73
2023-04-22T13:42:26.374Z,30.32
2023-04-22T13:47:33.373Z,30.85
2023-04-22T13:52:40.216Z,30.76
2023-04-22T13:57:47.719Z,30.45
2023-04-22T14:02:54.629Z,30.92
2023-04-22T14:08:02.068Z,30.48
2023-04-22T14:13:09.230Z,30.27
2023-04-22T14:18:18.040Z,30.00
2023-04-22T14:23:24.926Z,30.08
2023-04-22T14:28:31.963Z,30.07
2023-04-22T14:33:38.915Z,29.97
2023-04-22T14:38:46.059Z,30.16
2023-04-22T14:43:53.007Z,30.02
2023-04-22T14:49:00.002Z,29.64
2023-04-22T14:54:07.458Z,29.65
2023-04-22T14:59:14.492Z,29.29
2023-04-22T15:04:21.803Z,29.38
2023-04-22T15:09:28.829Z,29.37
2023-04-22T15:14:36.670Z,29.69
2023-04-22T15:19:43.536Z,29.43
2023-04-22T15:24:53.048Z,29.05
2023-04-22T15:29:59.903Z,28.83
2023-04-22T15:35:08.344Z,29.03
2023-04-22T15:40:15.320Z,29.16
2023-04-22T15:45:22.408Z,29.36
2023-04-22T15:50:30.381Z,29.88
2023-04-22T15:55:37.226Z,30.02
2023-04-22T16:00:44.349Z,30.08
2023-04-22T16:05:51.380Z,30.25
2023-04-22T16:10:58.600Z,29.77
2023-04-22T16:16:05.896Z,29.48
2023-04-22T16:21:12.891Z,29.61
2023-04-22T16:26:19.831Z,29.64
2023-04-22T16:31:26.766Z,28.29
2023-04-22T16:36:33.975Z,27.34
2023-04-22T16:41:43.322Z,27.39
2023-04-22T16:46:50.117Z,27.87
2023-04-22T16:51:57.168Z,27.07
2023-04-22T16:57:05.087Z,26.12
2023-04-22T17:02:12.186Z,25.56
2023-04-22T17:07:19.414Z,24.70
2023-04-22T17:12:26.308Z,23.90
2023-04-22T17:17:33.392Z,23.29
2023-04-22T17:22:41.247Z,22.93
2023-04-22T17:27:48.150Z,22.43
2023-04-22T17:32:55.191Z,21.95
2023-04-22T17:38:02.187Z,21.50
2023-04-22T17:43:09.075Z,21.09
2023-04-22T17:48:16.206Z,20.78
2023-04-22T17:53:23.155Z,20.30
2023-04-22T17:58:30.169Z,19.99
2023-04-22T18:03:37.691Z,19.73
2023-04-22T18:08:45.244Z,19.41
2023-04-22T18:13:52.093Z,19.04
2023-04-22T18:18:59.883Z,18.56
2023-04-22T18:24:08.462Z,18.10
2023-04-22T18:29:15.532Z,17.70
2023-04-22T18:34:22.380Z,17.34
2023-04-22T18:39:32.177Z,16.97
2023-04-22T18:44:39.430Z,16.67
2023-04-22T18:49:46.452Z,16.31
2023-04-22T18:54:53.356Z,16.01
2023-04-22T19:00:00.255Z,15.73
2023-04-22T19:05:08.210Z,15.44
2023-04-22T19:10:15.195Z,15.15
2023-04-22T19:15:22.371Z,14.83
2023-04-22T19:20:29.270Z,14.52
2023-04-22T19:25:37.842Z,14.25
2023-04-22T19:30:45.987Z,13.98
2023-04-22T19:35:52.998Z,13.67
2023-04-22T19:41:00.097Z,13.38
2023-04-22T19:46:07.487Z,13.15
2023-04-22T19:51:15.085Z,12.97
2023-04-22T19:56:22.477Z,12.76
2023-04-22T20:01:30.720Z,12.56
2023-04-22T20:06:38.405Z,12.35
2023-04-22T20:11:45.636Z,12.14
2023-04-22T20:16:53.532Z,11.96
2023-04-22T20:22:01.137Z,11.75
2023-04-22T20:27:08.890Z,11.57
2023-04-22T20:32:16.802Z,11.41
2023-04-22T20:37:24.820Z,11.24
2023-04-22T20:42:33.160Z,11.09
2023-04-22T20:47:40.169Z,10.93
2023-04-22T20:52:47.767Z,10.76
2023-04-22T20:57:54.641Z,10.59
2023-04-22T21:03:02.517Z,10.44
2023-04-22T21:08:21.587Z,10.30
2023-04-22T21:13:30.137Z,10.13
2023-04-22T21:18:40.049Z,9.94
2023-04-22T21:23:48.285Z,9.82
2023-04-22T21:28:56.238Z,9.72
2023-04-22T21:34:05.791Z,9.57
2023-04-22T21:39:13.015Z,9.42
2023-04-22T21:44:20.029Z,9.33
2023-04-22T21:49:27.028Z,9.25
2023-04-22T21:54:34.046Z,9.12
2023-04-22T21:59:40.953Z,9.02
2023-04-22T22:04:47.905Z,8.90
2023-04-22T22:09:55.089Z,8.77
2023-04-22T22:15:01.947Z,8.60
2023-04-22T22:20:12.234Z,8.46
2023-04-22T22:25:19.449Z,8.33
2023-04-22T22:30:26.603Z,8.21
2023-04-22T22:35:33.883Z,8.10
2023-04-22T22:40:40.723Z,8.02
2023-04-22T22:45:48.097Z,7.95
2023-04-22T22:50:54.975Z,7.83
2023-04-22T22:56:01.968Z,7.73
2023-04-22T23:01:09.161Z,7.65
2023-04-22T23:06:16.314Z,7.62
2023-04-22T23:11:23.189Z,7.55
2023-04-22T23:16:30.309Z,7.46
2023-04-22T23:21:38.702Z,7.37
2023-04-22T23:26:46.201Z,7.28
2023-04-22T23:31:53.606Z,7.24
2023-04-22T23:37:05.563Z,7.20
2023-04-22T23:42:12.594Z,7.12
2023-04-22T23:47:19.564Z,7.03
2023-04-22T23:52:26.595Z,6.95
2023-04-22T23:57:34.650Z,6.92
